sensor_id;sensor_type;location;lat;lon;timestamp;pressure;altitude;pressure_sealevel;temperature;humidity
74913;BME280;63878;55.624;37.304;2023-04-24T00:09:51;98980.63;;;8.88;35.24
74913;BME280;63878;55.624;37.304;2023-04-24T00:19:52;98979.31;;;8.41;37.27
74913;BME280;63878;55.624;37.304;2023-04-24T00:29:52;98986.88;;;8.34;36.07
74913;BME280;63878;55.624;37.304;2023-04-24T00:39:53;98977.59;;;7.97;37.18
74913;BME280;63878;55.624;37.304;2023-04-24T00:49:53;98971.78;;;7.82;36.92
74913;BME280;63878;55.624;37.304;2023-04-24T00:59:54;98943.91;;;7.59;37.05
74913;BME280;63878;55.624;37.304;2023-04-24T01:09:55;98973.38;;;7.40;37.99
74913;BME280;63878;55.624;37.304;2023-04-24T01:19:56;98972.78;;;7.25;38.14
74913;BME280;63878;55.624;37.304;2023-04-24T01:29:57;98961.91;;;7.07;39.07
74913;BME280;63878;55.624;37.304;2023-04-24T01:39:57;98972.53;;;7.06;39.13
74913;BME280;63878;55.624;37.304;2023-04-24T01:49:58;98974.19;;;7.07;39.31
74913;BME280;63878;55.624;37.304;2023-04-24T01:59:59;98956.88;;;6.93;39.53
74913;BME280;63878;55.624;37.304;2023-04-24T02:10:00;98957.13;;;7.01;38.81
74913;BME280;63878;55.624;37.304;2023-04-24T02:20:00;98954.47;;;6.55;39.54
74913;BME280;63878;55.624;37.304;2023-04-24T02:30:01;98962.53;;;6.40;39.99
74913;BME280;63878;55.624;37.304;2023-04-24T02:40:01;98965.22;;;6.63;39.97
74913;BME280;63878;55.624;37.304;2023-04-24T02:50:03;98976.16;;;6.81;39.31
74913;BME280;63878;55.624;37.304;2023-04-24T03:00:06;98972.44;;;7.18;38.24
74913;BME280;63878;55.624;37.304;2023-04-24T03:10:07;98984.72;;;7.29;38.21
74913;BME280;63878;55.624;37.304;2023-04-24T03:20:08;98988.28;;;7.62;37.02
74913;BME280;63878;55.624;37.304;2023-04-24T03:30:10;98994.25;;;7.75;37.12
74913;BME280;63878;55.624;37.304;2023-04-24T03:40:11;98993.25;;;8.21;36.32
74913;BME280;63878;55.624;37.304;2023-04-24T03:50:12;98990.47;;;8.86;34.94
74913;BME280;63878;55.624;37.304;2023-04-24T04:00:12;99012.72;;;9.03;34.51
74913;BME280;63878;55.624;37.304;2023-04-24T04:10:13;99012.22;;;9.51;34.33
74913;BME280;63878;55.624;37.304;2023-04-24T04:20:14;99021.13;;;10.00;33.55
74913;BME280;63878;55.624;37.304;2023-04-24T04:30:14;99013.13;;;10.21;33.18
74913;BME280;63878;55.624;37.304;2023-04-24T04:40:15;99018.72;;;11.05;32.70
74913;BME280;63878;55.624;37.304;2023-04-24T04:50:15;99017.91;;;11.88;31.80
74913;BME280;63878;55.624;37.304;2023-04-24T05:00:16;99026.81;;;12.15;31.07
74913;BME280;63878;55.624;37.304;2023-04-24T05:10:17;99026.94;;;12.41;30.45
74913;BME280;63878;55.624;37.304;2023-04-24T05:20:17;99030.84;;;13.26;28.10
74913;BME280;63878;55.624;37.304;2023-04-24T05:30:18;99038.06;;;13.68;28.82
74913;BME280;63878;55.624;37.304;2023-04-24T05:40:18;99031.63;;;13.78;27.68
74913;BME280;63878;55.624;37.304;2023-04-24T05:50:19;99031.06;;;16.05;30.71
74913;BME280;63878;55.624;37.304;2023-04-24T06:00:20;98996.19;;;16.76;26.60
74913;BME280;63878;55.624;37.304;2023-04-24T06:10:21;99030.66;;;17.01;31.07
74913;BME280;63878;55.624;37.304;2023-04-24T06:20:22;99030.72;;;16.70;25.33
74913;BME280;63878;55.624;37.304;2023-04-24T06:30:23;99041.72;;;17.50;31.07
74913;BME280;63878;55.624;37.304;2023-04-24T06:40:23;99038.66;;;16.55;29.64
74913;BME280;63878;55.624;37.304;2023-04-24T06:50:24;99035.34;;;15.75;24.77
74913;BME280;63878;55.624;37.304;2023-04-24T07:00:24;99039.22;;;15.56;24.85
74913;BME280;63878;55.624;37.304;2023-04-24T07:10:25;99045.56;;;15.47;25.92
74913;BME280;63878;55.624;37.304;2023-04-24T07:20:26;99048.25;;;15.94;26.52
74913;BME280;63878;55.624;37.304;2023-04-24T07:30:26;99035.72;;;17.48;31.76
74913;BME280;63878;55.624;37.304;2023-04-24T07:40:27;99036.03;;;19.13;30.94
74913;BME280;63878;55.624;37.304;2023-04-24T07:50:28;99034.91;;;18.07;29.95
74913;BME280;63878;55.624;37.304;2023-04-24T08:00:29;99029.19;;;16.75;23.23
74913;BME280;63878;55.624;37.304;2023-04-24T08:10:29;99023.69;;;18.48;29.83
74913;BME280;63878;55.624;37.304;2023-04-24T08:20:30;99016.19;;;17.33;19.30
74913;BME280;63878;55.624;37.304;2023-04-24T08:30:30;99009.91;;;16.88;28.14
74913;BME280;63878;55.624;37.304;2023-04-24T08:40:33;99013.38;;;16.20;21.91
74913;BME280;63878;55.624;37.304;2023-04-24T08:50:35;98999.72;;;15.84;20.14
74913;BME280;63878;55.624;37.304;2023-04-24T09:00:36;98997.13;;;15.59;20.40
74913;BME280;63878;55.624;37.304;2023-04-24T09:10:40;98989.41;;;16.20;20.57
74913;BME280;63878;55.624;37.304;2023-04-24T09:21:13;98974.09;;;15.83;20.39
74913;BME280;63878;55.624;37.304;2023-04-24T09:31:17;98977.38;;;15.54;20.63
74913;BME280;63878;55.624;37.304;2023-04-24T09:41:18;98958.94;;;16.68;26.06
74913;BME280;63878;55.624;37.304;2023-04-24T09:51:33;98955.63;;;16.43;21.29
74913;BME280;63878;55.624;37.304;2023-04-24T10:01:34;98940.28;;;15.44;20.46
74913;BME280;63878;55.624;37.304;2023-04-24T10:11:36;98939.34;;;15.29;20.79
74913;BME280;63878;55.624;37.304;2023-04-24T10:21:37;98939.53;;;15.75;20.54
74913;BME280;63878;55.624;37.304;2023-04-24T10:31:38;98940.16;;;15.37;21.34
74913;BME280;63878;55.624;37.304;2023-04-24T10:41:39;98918.09;;;15.21;20.76
74913;BME280;63878;55.624;37.304;2023-04-24T10:51:45;98918.84;;;15.46;20.39
74913;BME280;63878;55.624;37.304;2023-04-24T11:01:52;98910.25;;;17.04;27.42
74913;BME280;63878;55.624;37.304;2023-04-24T11:12:04;98898.81;;;18.42;26.97
74913;BME280;63878;55.624;37.304;2023-04-24T11:22:14;98897.22;;;18.47;26.72
74913;BME280;63878;55.624;37.304;2023-04-24T11:42:20;98876.53;;;17.41;19.70
74913;BME280;63878;55.624;37.304;2023-04-24T11:52:21;98856.19;;;18.12;27.10
74913;BME280;63878;55.624;37.304;2023-04-24T12:02:23;98842.38;;;17.51;17.82
74913;BME280;63878;55.624;37.304;2023-04-24T12:12:25;98844.88;;;18.10;19.07
74913;BME280;63878;55.624;37.304;2023-04-24T12:22:26;98825.16;;;18.11;25.40
74913;BME280;63878;55.624;37.304;2023-04-24T12:32:27;98823.59;;;19.07;26.43
74913;BME280;63878;55.624;37.304;2023-04-24T12:42:29;98822.19;;;19.11;18.98
74913;BME280;63878;55.624;37.304;2023-04-24T13:02:31;98819.03;;;16.49;19.06
74913;BME280;63878;55.624;37.304;2023-04-24T13:12:32;98807.53;;;16.34;18.76
74913;BME280;63878;55.624;37.304;2023-04-24T13:22:32;98805.03;;;16.10;18.96
74913;BME280;63878;55.624;37.304;2023-04-24T13:32:33;98786.22;;;16.26;18.58
74913;BME280;63878;55.624;37.304;2023-04-24T13:42:34;98780.16;;;16.17;19.14
74913;BME280;63878;55.624;37.304;2023-04-24T13:52:35;98771.25;;;16.10;19.26
74913;BME280;63878;55.624;37.304;2023-04-24T14:02:36;98764.34;;;16.01;19.14
74913;BME280;63878;55.624;37.304;2023-04-24T14:12:37;98760.97;;;16.07;19.57
74913;BME280;63878;55.624;37.304;2023-04-24T14:22:37;98755.84;;;15.83;19.33
74913;BME280;63878;55.624;37.304;2023-04-24T14:32:39;98761.19;;;15.60;18.78
74913;BME280;63878;55.624;37.304;2023-04-24T14:42:39;98745.13;;;15.91;19.56
74913;BME280;63878;55.624;37.304;2023-04-24T14:52:40;98746.03;;;15.83;19.18
74913;BME280;63878;55.624;37.304;2023-04-24T15:02:41;98740.25;;;15.80;19.02
74913;BME280;63878;55.624;37.304;2023-04-24T15:12:41;98730.78;;;15.54;19.32
74913;BME280;63878;55.624;37.304;2023-04-24T15:22:42;98747.03;;;15.59;19.65
74913;BME280;63878;55.624;37.304;2023-04-24T15:32:42;98745.44;;;15.73;25.08
74913;BME280;63878;55.624;37.304;2023-04-24T15:42:43;98722.63;;;16.75;28.43
74913;BME280;63878;55.624;37.304;2023-04-24T15:52:44;98720.81;;;17.27;28.58
74913;BME280;63878;55.624;37.304;2023-04-24T16:02:44;98727.41;;;17.31;24.98
74913;BME280;63878;55.624;37.304;2023-04-24T16:12:45;98724.13;;;17.50;26.87
74913;BME280;63878;55.624;37.304;2023-04-24T16:22:45;98729.66;;;17.27;26.82
74913;BME280;63878;55.624;37.304;2023-04-24T16:32:46;98728.91;;;17.55;26.91
74913;BME280;63878;55.624;37.304;2023-04-24T16:42:46;98733.72;;;17.66;27.64
74913;BME280;63878;55.624;37.304;2023-04-24T16:52:47;98734.09;;;17.63;27.68
74913;BME280;63878;55.624;37.304;2023-04-24T17:02:48;98742.66;;;17.37;28.27
74913;BME280;63878;55.624;37.304;2023-04-24T17:12:48;98738.41;;;17.43;29.34
74913;BME280;63878;55.624;37.304;2023-04-24T17:22:49;98751.00;;;17.27;25.95
74913;BME280;63878;55.624;37.304;2023-04-24T17:32:50;98751.09;;;15.16;22.13
74913;BME280;63878;55.624;37.304;2023-04-24T17:42:50;98772.53;;;14.75;22.95
74913;BME280;63878;55.624;37.304;2023-04-24T17:52:51;98784.72;;;14.62;22.57
74913;BME280;63878;55.624;37.304;2023-04-24T18:02:52;98785.75;;;14.28;22.59
74913;BME280;63878;55.624;37.304;2023-04-24T18:12:53;98786.06;;;13.92;22.61
74913;BME280;63878;55.624;37.304;2023-04-24T18:22:54;98780.94;;;13.91;23.30
74913;BME280;63878;55.624;37.304;2023-04-24T18:32:54;98790.25;;;13.87;23.37
74913;BME280;63878;55.624;37.304;2023-04-24T18:42:55;98782.94;;;13.81;23.91
74913;BME280;63878;55.624;37.304;2023-04-24T18:52:56;98791.03;;;13.79;23.59
74913;BME280;63878;55.624;37.304;2023-04-24T19:02:57;98791.81;;;13.63;23.98
74913;BME280;63878;55.624;37.304;2023-04-24T19:12:58;98774.44;;;13.52;24.80
74913;BME280;63878;55.624;37.304;2023-04-24T19:22:58;98795.75;;;13.35;24.31
74913;BME280;63878;55.624;37.304;2023-04-24T19:32:59;98795.75;;;13.35;25.17
74913;BME280;63878;55.624;37.304;2023-04-24T19:42:59;98799.00;;;13.12;25.08
74913;BME280;63878;55.624;37.304;2023-04-24T19:53:00;98792.97;;;12.94;25.02
74913;BME280;63878;55.624;37.304;2023-04-24T20:03:00;98775.91;;;12.36;25.38
74913;BME280;63878;55.624;37.304;2023-04-24T20:13:01;98801.47;;;12.46;26.30
74913;BME280;63878;55.624;37.304;2023-04-24T20:23:01;98799.69;;;12.28;26.17
74913;BME280;63878;55.624;37.304;2023-04-24T20:33:02;98797.31;;;12.25;26.85
74913;BME280;63878;55.624;37.304;2023-04-24T20:43:03;98800.88;;;12.34;26.23
74913;BME280;63878;55.624;37.304;2023-04-24T20:53:04;98803.13;;;12.47;26.21
74913;BME280;63878;55.624;37.304;2023-04-24T21:03:05;98786.03;;;11.61;27.73
74913;BME280;63878;55.624;37.304;2023-04-24T21:13:06;98801.25;;;11.77;27.72
74913;BME280;63878;55.624;37.304;2023-04-24T21:23:06;98807.00;;;11.73;28.69
74913;BME280;63878;55.624;37.304;2023-04-24T21:33:07;98801.06;;;12.14;27.50
74913;BME280;63878;55.624;37.304;2023-04-24T21:43:08;98803.38;;;11.74;28.11
74913;BME280;63878;55.624;37.304;2023-04-24T21:53:09;98807.94;;;11.54;28.58
74913;BME280;63878;55.624;37.304;2023-04-24T22:03:09;98797.97;;;10.65;29.86
74913;BME280;63878;55.624;37.304;2023-04-24T22:13:10;98806.25;;;11.07;29.69
74913;BME280;63878;55.624;37.304;2023-04-24T22:23:11;98782.09;;;10.75;30.34
74913;BME280;63878;55.624;37.304;2023-04-24T22:33:12;98791.16;;;10.63;30.51
74913;BME280;63878;55.624;37.304;2023-04-24T22:43:12;98780.84;;;11.06;30.77
74913;BME280;63878;55.624;37.304;2023-04-24T22:53:13;98781.34;;;11.55;33.43
74913;BME280;63878;55.624;37.304;2023-04-24T23:03:17;98775.00;;;12.02;33.21
74913;BME280;63878;55.624;37.304;2023-04-24T23:13:18;98795.78;;;11.16;31.57
74913;BME280;63878;55.624;37.304;2023-04-24T23:23:18;98782.09;;;11.02;32.90
74913;BME280;63878;55.624;37.304;2023-04-24T23:33:19;98770.41;;;10.77;32.69
74913;BME280;63878;55.624;37.304;2023-04-24T23:43:19;98758.91;;;10.96;35.95
74913;BME280;63878;55.624;37.304;2023-04-24T23:53:20;98772.00;;;11.16;34.78
